sensor_id;sensor_type;location;lat;lon;timestamp;P1;durP1;ratioP1;P2;durP2;ratioP2
11691;SDS011;33659;42.672;23.354;2022-11-15T00:02:20;60.20;;;37.17;;
11691;SDS011;33659;42.672;23.354;2022-11-15T00:04:48;66.77;;;37.20;;
11691;SDS011;33659;42.672;23.354;2022-11-15T00:07:14;70.30;;;38.40;;
11691;SDS011;33659;42.672;23.354;2022-11-15T00:09:41;75.57;;;38.87;;
11691;SDS011;33659;42.672;23.354;2022-11-15T00:12:08;74.40;;;40.33;;
11691;SDS011;33659;42.672;23.354;2022-11-15T00:14:35;68.57;;;38.13;;
11691;SDS011;33659;42.672;23.354;2022-11-15T00:17:02;65.40;;;37.93;;
11691;SDS011;33659;42.672;23.354;2022-11-15T00:19:28;71.23;;;39.60;;
11691;SDS011;33659;42.672;23.354;2022-11-15T00:21:56;74.87;;;40.30;;
11691;SDS011;33659;42.672;23.354;2022-11-15T00:24:23;68.73;;;39.87;;
11691;SDS011;33659;42.672;23.354;2022-11-15T00:26:50;74.37;;;38.47;;
11691;SDS011;33659;42.672;23.354;2022-11-15T00:29:16;68.73;;;39.33;;
11691;SDS011;33659;42.672;23.354;2022-11-15T00:31:43;63.77;;;35.40;;
11691;SDS011;33659;42.672;23.354;2022-11-15T00:34:10;54.23;;;29.77;;
11691;SDS011;33659;42.672;23.354;2022-11-15T00:36:37;44.50;;;27.13;;
11691;SDS011;33659;42.672;23.354;2022-11-15T00:39:05;44.97;;;23.40;;
11691;SDS011;33659;42.672;23.354;2022-11-15T00:41:32;57.07;;;30.10;;
11691;SDS011;33659;42.672;23.354;2022-11-15T00:43:58;57.13;;;32.80;;
11691;SDS011;33659;42.672;23.354;2022-11-15T00:46:25;66.43;;;35.13;;
11691;SDS011;33659;42.672;23.354;2022-11-15T00:48:52;60.50;;;33.17;;
11691;SDS011;33659;42.672;23.354;2022-11-15T00:51:18;56.67;;;32.70;;
11691;SDS011;33659;42.672;23.354;2022-11-15T00:53:45;65.13;;;31.63;;
11691;SDS011;33659;42.672;23.354;2022-11-15T00:56:13;54.23;;;27.30;;
11691;SDS011;33659;42.672;23.354;2022-11-15T00:58:40;52.30;;;29.13;;
11691;SDS011;33659;42.672;23.354;2022-11-15T01:01:08;59.10;;;30.70;;
11691;SDS011;33659;42.672;23.354;2022-11-15T01:03:36;60.27;;;34.60;;
11691;SDS011;33659;42.672;23.354;2022-11-15T01:06:04;66.43;;;35.93;;
11691;SDS011;33659;42.672;23.354;2022-11-15T01:08:31;64.90;;;35.47;;
11691;SDS011;33659;42.672;23.354;2022-11-15T01:11:00;54.53;;;31.60;;
11691;SDS011;33659;42.672;23.354;2022-11-15T01:13:30;57.33;;;31.90;;
11691;SDS011;33659;42.672;23.354;2022-11-15T01:15:57;60.57;;;32.67;;
11691;SDS011;33659;42.672;23.354;2022-11-15T01:18:25;59.30;;;32.07;;
11691;SDS011;33659;42.672;23.354;2022-11-15T01:20:51;52.20;;;31.03;;
11691;SDS011;33659;42.672;23.354;2022-11-15T01:23:18;66.13;;;34.83;;
11691;SDS011;33659;42.672;23.354;2022-11-15T01:25:45;66.43;;;37.43;;
11691;SDS011;33659;42.672;23.354;2022-11-15T01:28:11;69.57;;;38.43;;
11691;SDS011;33659;42.672;23.354;2022-11-15T01:30:39;68.40;;;37.33;;
11691;SDS011;33659;42.672;23.354;2022-11-15T01:33:06;70.83;;;39.17;;
11691;SDS011;33659;42.672;23.354;2022-11-15T01:35:33;68.47;;;37.17;;
11691;SDS011;33659;42.672;23.354;2022-11-15T01:38:04;59.47;;;33.23;;
11691;SDS011;33659;42.672;23.354;2022-11-15T01:40:30;66.23;;;35.90;;
11691;SDS011;33659;42.672;23.354;2022-11-15T01:42:57;63.83;;;36.53;;
11691;SDS011;33659;42.672;23.354;2022-11-15T01:45:24;62.63;;;34.70;;
11691;SDS011;33659;42.672;23.354;2022-11-15T01:47:53;60.40;;;34.47;;
11691;SDS011;33659;42.672;23.354;2022-11-15T01:50:22;55.33;;;31.87;;
11691;SDS011;33659;42.672;23.354;2022-11-15T01:52:54;59.20;;;33.40;;
11691;SDS011;33659;42.672;23.354;2022-11-15T01:55:22;59.50;;;32.30;;
11691;SDS011;33659;42.672;23.354;2022-11-15T01:57:52;61.23;;;34.20;;
11691;SDS011;33659;42.672;23.354;2022-11-15T02:00:21;60.23;;;33.00;;
11691;SDS011;33659;42.672;23.354;2022-11-15T02:02:48;56.00;;;32.63;;
11691;SDS011;33659;42.672;23.354;2022-11-15T02:05:16;60.57;;;33.67;;
11691;SDS011;33659;42.672;23.354;2022-11-15T02:07:43;59.60;;;31.13;;
11691;SDS011;33659;42.672;23.354;2022-11-15T02:10:11;56.40;;;31.83;;
11691;SDS011;33659;42.672;23.354;2022-11-15T02:12:40;59.50;;;31.83;;
11691;SDS011;33659;42.672;23.354;2022-11-15T02:15:08;60.80;;;32.70;;
11691;SDS011;33659;42.672;23.354;2022-11-15T02:17:46;57.57;;;31.10;;
11691;SDS011;33659;42.672;23.354;2022-11-15T02:20:30;52.43;;;30.43;;
11691;SDS011;33659;42.672;23.354;2022-11-15T02:26:25;55.50;;;30.43;;
11691;SDS011;33659;42.672;23.354;2022-11-15T02:29:07;57.30;;;30.93;;
11691;SDS011;33659;42.672;23.354;2022-11-15T02:31:39;55.43;;;29.07;;
11691;SDS011;33659;42.672;23.354;2022-11-15T02:34:16;46.10;;;25.63;;
11691;SDS011;33659;42.672;23.354;2022-11-15T02:36:54;49.03;;;27.43;;
11691;SDS011;33659;42.672;23.354;2022-11-15T02:39:32;54.37;;;28.30;;
11691;SDS011;33659;42.672;23.354;2022-11-15T02:42:02;52.23;;;28.80;;
11691;SDS011;33659;42.672;23.354;2022-11-15T02:44:53;54.50;;;29.37;;
11691;SDS011;33659;42.672;23.354;2022-11-15T02:47:23;55.43;;;30.73;;
11691;SDS011;33659;42.672;23.354;2022-11-15T02:49:53;57.40;;;28.70;;
11691;SDS011;33659;42.672;23.354;2022-11-15T02:52:24;58.23;;;31.60;;
11691;SDS011;33659;42.672;23.354;2022-11-15T02:54:53;49.77;;;29.50;;
11691;SDS011;33659;42.672;23.354;2022-11-15T02:57:22;55.83;;;28.73;;
11691;SDS011;33659;42.672;23.354;2022-11-15T03:02:54;53.63;;;28.63;;
11691;SDS011;33659;42.672;23.354;2022-11-15T03:05:30;55.53;;;29.27;;
11691;SDS011;33659;42.672;23.354;2022-11-15T03:08:05;49.97;;;30.43;;
11691;SDS011;33659;42.672;23.354;2022-11-15T03:10:38;52.63;;;29.33;;
11691;SDS011;33659;42.672;23.354;2022-11-15T03:13:16;54.10;;;28.67;;
11691;SDS011;33659;42.672;23.354;2022-11-15T03:15:54;52.20;;;29.43;;
11691;SDS011;33659;42.672;23.354;2022-11-15T03:18:31;50.80;;;27.70;;
11691;SDS011;33659;42.672;23.354;2022-11-15T03:21:00;58.30;;;29.97;;
11691;SDS011;33659;42.672;23.354;2022-11-15T03:23:31;50.60;;;27.10;;
11691;SDS011;33659;42.672;23.354;2022-11-15T03:25:58;46.50;;;28.50;;
11691;SDS011;33659;42.672;23.354;2022-11-15T03:28:27;48.67;;;29.73;;
11691;SDS011;33659;42.672;23.354;2022-11-15T03:31:00;43.00;;;26.30;;
11691;SDS011;33659;42.672;23.354;2022-11-15T03:33:51;43.23;;;26.03;;
11691;SDS011;33659;42.672;23.354;2022-11-15T03:36:21;53.40;;;26.70;;
11691;SDS011;33659;42.672;23.354;2022-11-15T03:38:51;44.80;;;26.40;;
11691;SDS011;33659;42.672;23.354;2022-11-15T03:41:21;58.30;;;30.07;;
11691;SDS011;33659;42.672;23.354;2022-11-15T03:43:52;59.27;;;31.43;;
11691;SDS011;33659;42.672;23.354;2022-11-15T03:46:26;60.87;;;30.00;;
11691;SDS011;33659;42.672;23.354;2022-11-15T03:49:00;57.13;;;32.07;;
11691;SDS011;33659;42.672;23.354;2022-11-15T03:51:31;64.93;;;35.47;;
11691;SDS011;33659;42.672;23.354;2022-11-15T03:53:58;61.00;;;34.23;;
11691;SDS011;33659;42.672;23.354;2022-11-15T03:56:25;62.23;;;34.07;;
11691;SDS011;33659;42.672;23.354;2022-11-15T03:58:52;61.57;;;33.73;;
11691;SDS011;33659;42.672;23.354;2022-11-15T04:01:18;64.90;;;34.40;;
11691;SDS011;33659;42.672;23.354;2022-11-15T04:03:45;57.87;;;32.57;;
11691;SDS011;33659;42.672;23.354;2022-11-15T04:06:13;58.03;;;31.73;;
11691;SDS011;33659;42.672;23.354;2022-11-15T04:08:40;54.20;;;30.60;;
11691;SDS011;33659;42.672;23.354;2022-11-15T04:11:07;49.50;;;28.97;;
11691;SDS011;33659;42.672;23.354;2022-11-15T04:13:34;52.47;;;29.87;;
11691;SDS011;33659;42.672;23.354;2022-11-15T04:16:01;53.80;;;28.53;;
11691;SDS011;33659;42.672;23.354;2022-11-15T04:18:27;47.00;;;28.27;;
11691;SDS011;33659;42.672;23.354;2022-11-15T04:20:54;44.30;;;27.80;;
11691;SDS011;33659;42.672;23.354;2022-11-15T04:23:42;50.37;;;27.73;;
11691;SDS011;33659;42.672;23.354;2022-11-15T04:26:25;50.33;;;28.20;;
11691;SDS011;33659;42.672;23.354;2022-11-15T04:28:52;44.40;;;26.80;;
11691;SDS011;33659;42.672;23.354;2022-11-15T04:31:36;40.97;;;25.20;;
11691;SDS011;33659;42.672;23.354;2022-11-15T04:34:03;46.27;;;26.57;;
11691;SDS011;33659;42.672;23.354;2022-11-15T04:36:29;41.67;;;24.17;;
11691;SDS011;33659;42.672;23.354;2022-11-15T04:39:14;42.97;;;26.27;;
11691;SDS011;33659;42.672;23.354;2022-11-15T04:41:41;38.37;;;23.70;;
11691;SDS011;33659;42.672;23.354;2022-11-15T04:44:08;37.07;;;23.83;;
11691;SDS011;33659;42.672;23.354;2022-11-15T04:46:34;37.53;;;21.63;;
11691;SDS011;33659;42.672;23.354;2022-11-15T04:49:01;37.40;;;22.60;;
11691;SDS011;33659;42.672;23.354;2022-11-15T04:51:28;32.60;;;19.87;;
11691;SDS011;33659;42.672;23.354;2022-11-15T04:53:55;28.80;;;18.50;;
11691;SDS011;33659;42.672;23.354;2022-11-15T04:56:23;27.33;;;18.93;;
11691;SDS011;33659;42.672;23.354;2022-11-15T04:58:49;27.53;;;16.50;;
11691;SDS011;33659;42.672;23.354;2022-11-15T05:01:16;23.87;;;13.20;;
11691;SDS011;33659;42.672;23.354;2022-11-15T05:03:43;22.53;;;13.77;;
11691;SDS011;33659;42.672;23.354;2022-11-15T05:06:39;29.47;;;15.37;;
11691;SDS011;33659;42.672;23.354;2022-11-15T05:09:06;34.17;;;15.10;;
11691;SDS011;33659;42.672;23.354;2022-11-15T05:11:34;35.40;;;17.13;;
11691;SDS011;33659;42.672;23.354;2022-11-15T05:14:01;37.70;;;18.40;;
11691;SDS011;33659;42.672;23.354;2022-11-15T05:16:28;47.30;;;17.23;;
11691;SDS011;33659;42.672;23.354;2022-11-15T05:18:54;32.07;;;17.70;;
11691;SDS011;33659;42.672;23.354;2022-11-15T05:21:21;35.10;;;18.97;;
11691;SDS011;33659;42.672;23.354;2022-11-15T05:23:48;31.70;;;14.57;;
11691;SDS011;33659;42.672;23.354;2022-11-15T05:26:15;31.80;;;15.87;;
11691;SDS011;33659;42.672;23.354;2022-11-15T05:28:45;36.13;;;15.47;;
11691;SDS011;33659;42.672;23.354;2022-11-15T05:31:12;34.17;;;14.37;;
11691;SDS011;33659;42.672;23.354;2022-11-15T05:33:41;40.03;;;13.80;;
11691;SDS011;33659;42.672;23.354;2022-11-15T05:36:10;29.40;;;14.10;;
11691;SDS011;33659;42.672;23.354;2022-11-15T05:38:42;28.57;;;11.53;;
11691;SDS011;33659;42.672;23.354;2022-11-15T05:41:09;21.63;;;10.60;;
11691;SDS011;33659;42.672;23.354;2022-11-15T05:43:36;48.57;;;11.80;;
11691;SDS011;33659;42.672;23.354;2022-11-15T05:46:06;22.90;;;11.23;;
11691;SDS011;33659;42.672;23.354;2022-11-15T05:48:33;30.33;;;12.60;;
11691;SDS011;33659;42.672;23.354;2022-11-15T05:51:02;23.53;;;11.00;;
11691;SDS011;33659;42.672;23.354;2022-11-15T05:53:30;25.20;;;10.83;;
11691;SDS011;33659;42.672;23.354;2022-11-15T05:55:57;22.97;;;12.47;;
11691;SDS011;33659;42.672;23.354;2022-11-15T05:58:24;28.43;;;12.73;;
11691;SDS011;33659;42.672;23.354;2022-11-15T06:00:51;26.77;;;12.70;;
11691;SDS011;33659;42.672;23.354;2022-11-15T06:03:19;24.20;;;12.83;;
11691;SDS011;33659;42.672;23.354;2022-11-15T06:05:46;20.77;;;12.07;;
11691;SDS011;33659;42.672;23.354;2022-11-15T06:08:12;24.17;;;12.17;;
11691;SDS011;33659;42.672;23.354;2022-11-15T06:10:39;25.43;;;14.13;;
11691;SDS011;33659;42.672;23.354;2022-11-15T06:13:06;31.40;;;13.93;;
11691;SDS011;33659;42.672;23.354;2022-11-15T06:15:33;38.87;;;13.97;;
11691;SDS011;33659;42.672;23.354;2022-11-15T06:18:00;25.90;;;13.03;;
11691;SDS011;33659;42.672;23.354;2022-11-15T06:20:28;32.07;;;15.23;;
11691;SDS011;33659;42.672;23.354;2022-11-15T06:22:56;27.27;;;13.90;;
11691;SDS011;33659;42.672;23.354;2022-11-15T06:25:24;27.63;;;13.03;;
11691;SDS011;33659;42.672;23.354;2022-11-15T06:27:51;25.50;;;13.53;;
11691;SDS011;33659;42.672;23.354;2022-11-15T06:30:18;26.27;;;14.63;;
11691;SDS011;33659;42.672;23.354;2022-11-15T06:32:45;24.33;;;12.80;;
11691;SDS011;33659;42.672;23.354;2022-11-15T06:35:12;28.90;;;13.67;;
11691;SDS011;33659;42.672;23.354;2022-11-15T06:37:40;23.77;;;14.33;;
11691;SDS011;33659;42.672;23.354;2022-11-15T06:40:08;24.40;;;13.77;;
11691;SDS011;33659;42.672;23.354;2022-11-15T06:42:36;23.93;;;13.83;;
11691;SDS011;33659;42.672;23.354;2022-11-15T06:45:02;33.80;;;16.07;;
11691;SDS011;33659;42.672;23.354;2022-11-15T06:47:30;26.53;;;13.53;;
11691;SDS011;33659;42.672;23.354;2022-11-15T06:49:56;26.77;;;13.17;;
11691;SDS011;33659;42.672;23.354;2022-11-15T06:52:23;28.27;;;14.27;;
11691;SDS011;33659;42.672;23.354;2022-11-15T06:54:51;27.90;;;14.87;;
11691;SDS011;33659;42.672;23.354;2022-11-15T06:57:18;24.77;;;13.20;;
11691;SDS011;33659;42.672;23.354;2022-11-15T06:59:45;25.20;;;13.17;;
11691;SDS011;33659;42.672;23.354;2022-11-15T07:02:12;23.10;;;13.73;;
11691;SDS011;33659;42.672;23.354;2022-11-15T07:04:39;22.07;;;13.83;;
11691;SDS011;33659;42.672;23.354;2022-11-15T07:07:06;27.67;;;15.43;;
11691;SDS011;33659;42.672;23.354;2022-11-15T07:09:33;30.97;;;15.63;;
11691;SDS011;33659;42.672;23.354;2022-11-15T07:12:01;31.27;;;16.60;;
11691;SDS011;33659;42.672;23.354;2022-11-15T07:14:28;29.87;;;15.27;;
11691;SDS011;33659;42.672;23.354;2022-11-15T07:16:54;42.07;;;17.30;;
11691;SDS011;33659;42.672;23.354;2022-11-15T07:19:21;38.80;;;17.97;;
11691;SDS011;33659;42.672;23.354;2022-11-15T07:21:47;33.07;;;16.07;;
11691;SDS011;33659;42.672;23.354;2022-11-15T07:24:14;37.93;;;16.67;;
11691;SDS011;33659;42.672;23.354;2022-11-15T07:26:41;31.17;;;15.80;;
11691;SDS011;33659;42.672;23.354;2022-11-15T07:29:09;32.23;;;16.07;;
11691;SDS011;33659;42.672;23.354;2022-11-15T07:31:36;32.23;;;16.40;;
11691;SDS011;33659;42.672;23.354;2022-11-15T07:34:03;34.23;;;16.43;;
11691;SDS011;33659;42.672;23.354;2022-11-15T07:36:29;31.63;;;15.90;;
11691;SDS011;33659;42.672;23.354;2022-11-15T07:38:56;33.93;;;16.13;;
11691;SDS011;33659;42.672;23.354;2022-11-15T07:41:23;27.47;;;15.33;;
11691;SDS011;33659;42.672;23.354;2022-11-15T07:43:50;28.90;;;16.67;;
11691;SDS011;33659;42.672;23.354;2022-11-15T07:46:19;33.83;;;17.03;;
11691;SDS011;33659;42.672;23.354;2022-11-15T07:48:45;33.33;;;16.43;;
11691;SDS011;33659;42.672;23.354;2022-11-15T07:51:12;34.73;;;17.07;;
11691;SDS011;33659;42.672;23.354;2022-11-15T07:53:40;35.17;;;16.60;;
11691;SDS011;33659;42.672;23.354;2022-11-15T07:56:06;40.33;;;18.57;;
11691;SDS011;33659;42.672;23.354;2022-11-15T07:58:34;32.43;;;17.93;;
11691;SDS011;33659;42.672;23.354;2022-11-15T08:01:02;37.60;;;18.67;;
11691;SDS011;33659;42.672;23.354;2022-11-15T08:03:30;34.60;;;18.37;;
11691;SDS011;33659;42.672;23.354;2022-11-15T08:05:58;37.93;;;18.37;;
11691;SDS011;33659;42.672;23.354;2022-11-15T08:08:25;37.27;;;18.70;;
11691;SDS011;33659;42.672;23.354;2022-11-15T08:10:51;34.33;;;18.50;;
11691;SDS011;33659;42.672;23.354;2022-11-15T08:13:18;35.13;;;18.17;;
11691;SDS011;33659;42.672;23.354;2022-11-15T08:15:45;35.23;;;19.43;;
11691;SDS011;33659;42.672;23.354;2022-11-15T08:18:12;37.03;;;18.37;;
11691;SDS011;33659;42.672;23.354;2022-11-15T08:20:42;40.27;;;19.63;;
11691;SDS011;33659;42.672;23.354;2022-11-15T08:23:09;35.67;;;19.60;;
11691;SDS011;33659;42.672;23.354;2022-11-15T08:25:37;41.67;;;19.70;;
11691;SDS011;33659;42.672;23.354;2022-11-15T08:28:05;42.40;;;20.93;;
11691;SDS011;33659;42.672;23.354;2022-11-15T08:30:34;36.00;;;20.43;;
11691;SDS011;33659;42.672;23.354;2022-11-15T08:33:02;38.97;;;19.90;;
11691;SDS011;33659;42.672;23.354;2022-11-15T08:35:29;40.63;;;21.97;;
11691;SDS011;33659;42.672;23.354;2022-11-15T08:37:58;44.27;;;22.07;;
11691;SDS011;33659;42.672;23.354;2022-11-15T08:40:24;41.93;;;20.60;;
11691;SDS011;33659;42.672;23.354;2022-11-15T08:42:52;38.27;;;21.23;;
11691;SDS011;33659;42.672;23.354;2022-11-15T08:45:18;40.77;;;22.30;;
11691;SDS011;33659;42.672;23.354;2022-11-15T08:47:45;43.33;;;22.00;;
11691;SDS011;33659;42.672;23.354;2022-11-15T08:50:12;44.33;;;22.00;;
11691;SDS011;33659;42.672;23.354;2022-11-15T08:52:39;45.93;;;22.93;;
11691;SDS011;33659;42.672;23.354;2022-11-15T08:55:07;39.87;;;21.73;;
11691;SDS011;33659;42.672;23.354;2022-11-15T08:57:34;40.23;;;20.90;;
11691;SDS011;33659;42.672;23.354;2022-11-15T09:00:01;42.53;;;22.97;;
11691;SDS011;33659;42.672;23.354;2022-11-15T09:02:28;43.70;;;23.80;;
11691;SDS011;33659;42.672;23.354;2022-11-15T09:04:55;45.80;;;21.63;;
11691;SDS011;33659;42.672;23.354;2022-11-15T09:07:22;39.07;;;22.53;;
11691;SDS011;33659;42.672;23.354;2022-11-15T09:09:49;49.77;;;24.07;;
11691;SDS011;33659;42.672;23.354;2022-11-15T09:12:17;42.87;;;22.77;;
11691;SDS011;33659;42.672;23.354;2022-11-15T09:14:43;50.57;;;26.33;;
11691;SDS011;33659;42.672;23.354;2022-11-15T09:17:10;42.53;;;25.50;;
11691;SDS011;33659;42.672;23.354;2022-11-15T09:19:37;57.63;;;27.77;;
11691;SDS011;33659;42.672;23.354;2022-11-15T09:22:05;49.77;;;26.67;;
11691;SDS011;33659;42.672;23.354;2022-11-15T09:24:32;57.87;;;27.37;;
11691;SDS011;33659;42.672;23.354;2022-11-15T09:26:59;53.30;;;27.27;;
11691;SDS011;33659;42.672;23.354;2022-11-15T09:29:27;53.63;;;27.73;;
11691;SDS011;33659;42.672;23.354;2022-11-15T09:31:53;61.30;;;26.83;;
11691;SDS011;33659;42.672;23.354;2022-11-15T09:34:20;55.37;;;28.27;;
11691;SDS011;33659;42.672;23.354;2022-11-15T09:36:47;54.87;;;29.23;;
11691;SDS011;33659;42.672;23.354;2022-11-15T09:39:13;58.00;;;27.97;;
11691;SDS011;33659;42.672;23.354;2022-11-15T09:41:48;65.27;;;29.13;;
11691;SDS011;33659;42.672;23.354;2022-11-15T09:44:37;52.93;;;25.93;;
11691;SDS011;33659;42.672;23.354;2022-11-15T09:47:15;53.23;;;29.53;;
11691;SDS011;33659;42.672;23.354;2022-11-15T09:49:58;54.17;;;27.57;;
11691;SDS011;33659;42.672;23.354;2022-11-15T09:52:27;51.57;;;27.47;;
11691;SDS011;33659;42.672;23.354;2022-11-15T09:54:54;51.70;;;28.67;;
11691;SDS011;33659;42.672;23.354;2022-11-15T09:57:21;58.30;;;28.83;;
11691;SDS011;33659;42.672;23.354;2022-11-15T10:00:02;57.00;;;28.40;;
11691;SDS011;33659;42.672;23.354;2022-11-15T10:02:39;57.23;;;28.60;;
11691;SDS011;33659;42.672;23.354;2022-11-15T10:05:18;53.63;;;28.00;;
11691;SDS011;33659;42.672;23.354;2022-11-15T10:07:49;59.17;;;29.30;;
11691;SDS011;33659;42.672;23.354;2022-11-15T10:10:27;49.37;;;28.23;;
11691;SDS011;33659;42.672;23.354;2022-11-15T10:12:57;53.93;;;29.23;;
11691;SDS011;33659;42.672;23.354;2022-11-15T10:15:26;51.07;;;29.10;;
11691;SDS011;33659;42.672;23.354;2022-11-15T10:18:00;56.60;;;28.63;;
11691;SDS011;33659;42.672;23.354;2022-11-15T10:20:34;48.33;;;27.50;;
11691;SDS011;33659;42.672;23.354;2022-11-15T10:23:11;58.27;;;28.70;;
11691;SDS011;33659;42.672;23.354;2022-11-15T10:25:40;52.27;;;28.10;;
11691;SDS011;33659;42.672;23.354;2022-11-15T10:28:09;48.60;;;27.43;;
11691;SDS011;33659;42.672;23.354;2022-11-15T10:30:45;43.93;;;26.43;;
11691;SDS011;33659;42.672;23.354;2022-11-15T10:36:14;54.93;;;28.50;;
11691;SDS011;33659;42.672;23.354;2022-11-15T10:38:50;52.78;;;28.15;;
11691;SDS011;33659;42.672;23.354;2022-11-15T10:41:19;44.28;;;27.23;;
11691;SDS011;33659;42.672;23.354;2022-11-15T10:44:02;50.47;;;28.02;;
11691;SDS011;33659;42.672;23.354;2022-11-15T10:46:37;53.80;;;28.33;;
11691;SDS011;33659;42.672;23.354;2022-11-15T10:49:12;46.95;;;27.35;;
11691;SDS011;33659;42.672;23.354;2022-11-15T10:51:41;51.45;;;28.23;;
11691;SDS011;33659;42.672;23.354;2022-11-15T10:54:11;47.15;;;26.35;;
11691;SDS011;33659;42.672;23.354;2022-11-15T10:56:39;48.42;;;28.33;;
11691;SDS011;33659;42.672;23.354;2022-11-15T10:59:13;47.13;;;28.48;;
11691;SDS011;33659;42.672;23.354;2022-11-15T11:01:46;51.65;;;27.85;;
11691;SDS011;33659;42.672;23.354;2022-11-15T11:04:14;56.47;;;28.75;;
11691;SDS011;33659;42.672;23.354;2022-11-15T11:06:47;48.08;;;27.27;;
11691;SDS011;33659;42.672;23.354;2022-11-15T11:09:23;52.63;;;28.73;;
11691;SDS011;33659;42.672;23.354;2022-11-15T11:11:56;58.25;;;28.25;;
11691;SDS011;33659;42.672;23.354;2022-11-15T11:14:24;55.53;;;29.10;;
11691;SDS011;33659;42.672;23.354;2022-11-15T11:16:55;51.85;;;28.02;;
11691;SDS011;33659;42.672;23.354;2022-11-15T11:19:35;54.90;;;29.42;;
11691;SDS011;33659;42.672;23.354;2022-11-15T11:22:11;58.08;;;30.77;;
11691;SDS011;33659;42.672;23.354;2022-11-15T11:24:45;53.30;;;29.85;;
11691;SDS011;33659;42.672;23.354;2022-11-15T11:27:23;50.67;;;28.15;;
11691;SDS011;33659;42.672;23.354;2022-11-15T11:30:06;55.15;;;30.02;;
11691;SDS011;33659;42.672;23.354;2022-11-15T11:32:43;54.20;;;28.88;;
11691;SDS011;33659;42.672;23.354;2022-11-15T11:35:19;51.83;;;28.75;;
11691;SDS011;33659;42.672;23.354;2022-11-15T11:37:50;48.35;;;27.38;;
11691;SDS011;33659;42.672;23.354;2022-11-15T11:40:22;49.45;;;26.90;;
11691;SDS011;33659;42.672;23.354;2022-11-15T11:42:56;55.40;;;26.48;;
11691;SDS011;33659;42.672;23.354;2022-11-15T11:45:38;46.33;;;26.63;;
11691;SDS011;33659;42.672;23.354;2022-11-15T11:48:23;45.17;;;26.00;;
11691;SDS011;33659;42.672;23.354;2022-11-15T11:51:05;41.65;;;25.00;;
11691;SDS011;33659;42.672;23.354;2022-11-15T11:53:39;44.47;;;25.52;;
11691;SDS011;33659;42.672;23.354;2022-11-15T11:56:14;46.72;;;26.40;;
11691;SDS011;33659;42.672;23.354;2022-11-15T11:58:48;40.40;;;24.70;;
11691;SDS011;33659;42.672;23.354;2022-11-15T12:01:17;39.40;;;24.23;;
11691;SDS011;33659;42.672;23.354;2022-11-15T12:03:51;44.75;;;24.55;;
11691;SDS011;33659;42.672;23.354;2022-11-15T12:06:23;38.95;;;25.48;;
11691;SDS011;33659;42.672;23.354;2022-11-15T12:08:58;41.97;;;25.75;;
11691;SDS011;33659;42.672;23.354;2022-11-15T12:11:29;42.97;;;25.92;;
11691;SDS011;33659;42.672;23.354;2022-11-15T12:14:03;39.58;;;23.45;;
11691;SDS011;33659;42.672;23.354;2022-11-15T12:16:37;49.50;;;25.45;;
11691;SDS011;33659;42.672;23.354;2022-11-15T12:19:09;46.35;;;25.92;;
11691;SDS011;33659;42.672;23.354;2022-11-15T12:21:37;49.13;;;25.40;;
11691;SDS011;33659;42.672;23.354;2022-11-15T12:24:12;41.58;;;27.13;;
11691;SDS011;33659;42.672;23.354;2022-11-15T12:26:45;41.22;;;25.45;;
11691;SDS011;33659;42.672;23.354;2022-11-15T12:29:16;40.90;;;24.92;;
11691;SDS011;33659;42.672;23.354;2022-11-15T12:31:50;42.92;;;25.42;;
11691;SDS011;33659;42.672;23.354;2022-11-15T12:34:34;42.42;;;25.85;;
11691;SDS011;33659;42.672;23.354;2022-11-15T12:40:17;39.55;;;25.70;;
11691;SDS011;33659;42.672;23.354;2022-11-15T12:42:58;40.78;;;24.83;;
11691;SDS011;33659;42.672;23.354;2022-11-15T12:45:31;37.05;;;23.67;;
11691;SDS011;33659;42.672;23.354;2022-11-15T12:51:09;43.80;;;27.17;;
11691;SDS011;33659;42.672;23.354;2022-11-15T12:53:36;42.70;;;25.02;;
11691;SDS011;33659;42.672;23.354;2022-11-15T12:56:17;37.53;;;24.02;;
11691;SDS011;33659;42.672;23.354;2022-11-15T12:58:48;41.08;;;25.08;;
11691;SDS011;33659;42.672;23.354;2022-11-15T13:04:35;40.20;;;25.25;;
11691;SDS011;33659;42.672;23.354;2022-11-15T13:07:03;40.85;;;26.20;;
11691;SDS011;33659;42.672;23.354;2022-11-15T13:09:51;44.33;;;27.10;;
11691;SDS011;33659;42.672;23.354;2022-11-15T13:18:26;39.97;;;24.40;;
11691;SDS011;33659;42.672;23.354;2022-11-15T13:21:04;43.05;;;25.95;;
11691;SDS011;33659;42.672;23.354;2022-11-15T13:24:04;42.42;;;26.40;;
11691;SDS011;33659;42.672;23.354;2022-11-15T13:26:37;41.95;;;25.83;;
11691;SDS011;33659;42.672;23.354;2022-11-15T13:29:12;42.15;;;27.45;;
11691;SDS011;33659;42.672;23.354;2022-11-15T13:31:43;47.20;;;26.88;;
11691;SDS011;33659;42.672;23.354;2022-11-15T13:34:26;43.13;;;26.85;;
11691;SDS011;33659;42.672;23.354;2022-11-15T13:36:57;46.47;;;28.05;;
11691;SDS011;33659;42.672;23.354;2022-11-15T13:39:28;45.53;;;28.77;;
11691;SDS011;33659;42.672;23.354;2022-11-15T13:41:56;44.85;;;27.42;;
11691;SDS011;33659;42.672;23.354;2022-11-15T13:44:25;45.00;;;26.83;;
11691;SDS011;33659;42.672;23.354;2022-11-15T13:47:03;46.20;;;26.90;;
11691;SDS011;33659;42.672;23.354;2022-11-15T13:49:32;45.83;;;27.85;;
11691;SDS011;33659;42.672;23.354;2022-11-15T13:52:00;45.20;;;27.30;;
11691;SDS011;33659;42.672;23.354;2022-11-15T13:54:33;48.45;;;28.50;;
11691;SDS011;33659;42.672;23.354;2022-11-15T13:57:03;51.15;;;28.75;;
11691;SDS011;33659;42.672;23.354;2022-11-15T13:59:36;51.88;;;30.00;;
11691;SDS011;33659;42.672;23.354;2022-11-15T14:02:11;48.10;;;28.02;;
11691;SDS011;33659;42.672;23.354;2022-11-15T14:04:45;45.28;;;28.52;;
11691;SDS011;33659;42.672;23.354;2022-11-15T14:07:15;46.45;;;28.88;;
11691;SDS011;33659;42.672;23.354;2022-11-15T14:09:46;52.78;;;29.05;;
11691;SDS011;33659;42.672;23.354;2022-11-15T14:12:29;47.33;;;28.45;;
11691;SDS011;33659;42.672;23.354;2022-11-15T14:14:58;48.10;;;29.17;;
11691;SDS011;33659;42.672;23.354;2022-11-15T14:17:38;56.13;;;30.38;;
11691;SDS011;33659;42.672;23.354;2022-11-15T14:20:26;55.28;;;31.73;;
11691;SDS011;33659;42.672;23.354;2022-11-15T14:22:56;54.30;;;30.60;;
11691;SDS011;33659;42.672;23.354;2022-11-15T14:25:26;51.30;;;29.83;;
11691;SDS011;33659;42.672;23.354;2022-11-15T14:28:10;54.95;;;30.30;;
11691;SDS011;33659;42.672;23.354;2022-11-15T14:30:42;51.67;;;28.05;;
11691;SDS011;33659;42.672;23.354;2022-11-15T14:33:21;50.67;;;28.75;;
11691;SDS011;33659;42.672;23.354;2022-11-15T14:35:50;51.25;;;28.77;;
11691;SDS011;33659;42.672;23.354;2022-11-15T14:38:17;48.53;;;28.27;;
11691;SDS011;33659;42.672;23.354;2022-11-15T14:40:46;54.05;;;26.65;;
11691;SDS011;33659;42.672;23.354;2022-11-15T14:43:12;54.53;;;27.13;;
11691;SDS011;33659;42.672;23.354;2022-11-15T14:45:39;54.53;;;27.30;;
11691;SDS011;33659;42.672;23.354;2022-11-15T14:48:06;55.38;;;29.92;;
11691;SDS011;33659;42.672;23.354;2022-11-15T14:50:33;60.10;;;29.57;;
11691;SDS011;33659;42.672;23.354;2022-11-15T14:53:01;56.30;;;28.50;;